Time;durP1;ratioP1;P1;durP2;ratioP2;P2;SDS_P1;SDS_P2;PMS_P1;PMS_P2;Temp;Humidity;BMP_temperature;BMP_pressure;BME280_temperature;BME280_humidity;BME280_pressure;Samples;Min_cycle;Max_cycle;Signal;HPM_P1;HPM_P2
2021/08/13 00:00:53;;;;;;;23.42;11.55;;;;;;;16.21;84.99;99364.13;5155310;27;20639;-69
2021/08/13 00:03:20;;;;;;;24.13;11.77;;;;;;;16.16;85.37;99379.78;5154848;27;20074;-71
2021/08/13 00:05:46;;;;;;;24.10;11.20;;;;;;;16.11;85.40;99369.63;5155138;27;20055;-70
2021/08/13 00:08:12;;;;;;;23.80;11.50;;;;;;;16.09;85.36;99376.94;5154681;27;20042;-79
2021/08/13 00:10:38;;;;;;;20.90;11.10;;;;;;;16.06;85.67;99371.91;5136479;27;20044;-74
2021/08/13 00:13:03;;;;;;;26.00;11.10;;;;;;;16.01;85.61;99377.75;5155034;27;20061;-75
2021/08/13 00:15:29;;;;;;;21.83;11.05;;;;;;;15.96;85.64;99372.06;5154828;27;20061;-74
2021/08/13 00:17:56;;;;;;;25.75;12.93;;;;;;;15.92;85.73;99375.22;5155186;27;20506;-74
2021/08/13 00:20:22;;;;;;;22.80;11.05;;;;;;;15.87;86.13;99377.53;5154917;27;20043;-72
2021/08/13 00:22:49;;;;;;;22.25;11.90;;;;;;;15.81;86.31;99378.97;5154892;27;20125;-71
2021/08/13 00:25:15;;;;;;;21.70;11.57;;;;;;;15.80;86.32;99382.63;5154828;27;20042;-74
2021/08/13 00:27:41;;;;;;;29.13;12.20;;;;;;;15.75;86.48;99379.59;5155066;27;20336;-71
2021/08/13 00:30:07;;;;;;;27.48;12.02;;;;;;;15.67;86.79;99389.22;5154070;27;20054;-72
2021/08/13 00:32:36;;;;;;;29.33;12.35;;;;;;;15.63;86.77;99389.72;5136729;27;20436;-76
2021/08/13 00:35:02;;;;;;;28.70;12.07;;;;;;;15.59;87.07;99386.53;5154487;27;20074;-74
2021/08/13 00:37:28;;;;;;;24.73;11.65;;;;;;;15.55;87.07;99382.47;5135594;27;20487;-72
2021/08/13 00:39:54;;;;;;;24.60;12.18;;;;;;;15.52;87.16;99385.47;5135879;27;20038;-73
2021/08/13 00:42:21;;;;;;;23.08;11.88;;;;;;;15.49;87.16;99391.13;5135665;27;20038;-70
2021/08/13 00:44:49;;;;;;;25.45;11.93;;;;;;;15.47;87.21;99393.94;5119198;27;20046;-73
2021/08/13 00:47:15;;;;;;;21.63;11.75;;;;;;;15.44;87.32;99382.75;5135336;27;20058;-71
2021/08/13 00:49:56;;;;;;;22.80;10.90;;;;;;;15.42;87.24;99385.59;5135996;27;20044;-71
2021/08/13 00:52:30;;;;;;;29.00;11.38;;;;;;;15.41;87.21;99377.75;5135707;27;20126;-70
2021/08/13 00:54:56;;;;;;;20.55;10.73;;;;;;;15.39;87.14;99375.25;5131272;27;20545;-70
2021/08/13 00:57:35;;;;;;;23.67;11.85;;;;;;;15.36;87.31;99375.56;5134808;27;20099;-72
2021/08/13 01:00:22;;;;;;;27.33;10.77;;;;;;;15.29;87.34;99380.69;5134722;27;20051;-71
2021/08/13 01:02:51;;;;;;;23.85;11.02;;;;;;;15.26;87.68;99383.63;5135303;27;20217;-72
2021/08/13 01:05:19;;;;;;;25.33;10.98;;;;;;;15.24;87.63;99385.66;5153783;27;20039;-74
2021/08/13 01:07:45;;;;;;;23.88;10.27;;;;;;;15.21;87.60;99383.28;5135797;27;20057;-69
2021/08/13 01:10:12;;;;;;;19.52;10.20;;;;;;;15.17;87.54;99379.25;5134984;27;20047;-71
2021/08/13 01:12:49;;;;;;;21.27;11.13;;;;;;;15.12;87.72;99369.06;5135579;27;20420;-71
2021/08/13 01:15:17;;;;;;;19.98;11.20;;;;;;;15.10;87.89;99375.53;5135158;27;20047;-71
2021/08/13 01:17:58;;;;;;;22.48;11.32;;;;;;;15.07;87.94;99378.53;5118522;27;20074;-71
2021/08/13 01:20:27;;;;;;;26.90;11.70;;;;;;;15.03;88.00;99362.84;5118110;27;20410;-70
2021/08/13 01:22:59;;;;;;;24.63;10.70;;;;;;;15.01;88.25;99372.81;5135001;27;20038;-73
2021/08/13 01:25:31;;;;;;;23.17;10.63;;;;;;;14.96;88.08;99361.78;5118050;27;20444;-72
2021/08/13 01:27:58;;;;;;;26.00;11.40;;;;;;;14.94;88.24;99371.78;5135317;27;20058;-72
2021/08/13 01:30:26;;;;;;;21.80;11.50;;;;;;;14.92;88.34;99363.09;5117790;27;20043;-75
2021/08/13 01:33:04;;;;;;;21.88;10.65;;;;;;;14.91;88.30;99369.41;5118887;27;20084;-73
2021/08/13 01:35:39;;;;;;;21.50;10.75;;;;;;;14.88;88.45;99367.06;5118755;27;20530;-71
2021/08/13 01:38:13;;;;;;;23.80;11.70;;;;;;;14.86;88.67;99369.84;5118573;27;20491;-73
2021/08/13 01:40:46;;;;;;;21.50;11.45;;;;;;;14.84;88.71;99371.84;5135654;27;20070;-70
2021/08/13 01:43:18;;;;;;;25.67;11.00;;;;;;;14.86;88.70;99369.84;5139426;27;20042;-73
2021/08/13 01:45:45;;;;;;;24.48;10.88;;;;;;;14.91;88.55;99377.38;5139464;27;20052;-77
2021/08/13 01:48:11;;;;;;;24.98;11.70;;;;;;;15.00;88.49;99387.13;5118149;27;20103;-71
2021/08/13 01:50:40;;;;;;;22.95;11.05;;;;;;;15.15;88.04;99383.91;5135797;27;20047;-72
2021/08/13 01:53:06;;;;;;;27.25;10.82;;;;;;;15.29;87.32;99391.34;5118697;27;20125;-70
2021/08/13 01:55:33;;;;;;;21.35;10.55;;;;;;;15.43;86.55;99387.25;5118320;27;20039;-72
2021/08/13 01:58:00;;;;;;;24.83;10.57;;;;;;;15.47;86.05;99379.78;5118620;27;20043;-70
2021/08/13 02:00:26;;;;;;;29.35;10.77;;;;;;;15.52;85.61;99390.81;5133016;27;20059;-72
2021/08/13 02:02:56;;;;;;;21.75;10.38;;;;;;;15.62;85.26;99396.84;5116488;27;20044;-71
2021/08/13 02:05:25;;;;;;;20.48;9.90;;;;;;;15.76;85.00;99397.28;5097189;28;20131;-71
2021/08/13 02:07:53;;;;;;;19.95;9.82;;;;;;;15.81;84.38;99394.97;5097485;28;20397;-72
2021/08/13 02:10:20;;;;;;;20.23;10.50;;;;;;;15.83;84.10;99395.69;5097625;28;20040;-72
2021/08/13 02:12:46;;;;;;;26.20;9.52;;;;;;;15.82;83.59;99407.34;5114363;28;20074;-70
2021/08/13 02:15:12;;;;;;;25.88;12.82;;;;;;;15.86;83.25;99403.34;5097445;28;20123;-70
2021/08/13 02:17:44;;;;;;;18.13;10.35;;;;;;;15.84;82.70;99416.03;5097875;28;20051;-71
2021/08/13 02:20:14;;;;;;;18.42;9.15;;;;;;;15.85;82.29;99415.03;5097855;28;20070;-72
2021/08/13 02:22:40;;;;;;;21.65;9.75;;;;;;;15.82;82.55;99418.81;5114693;28;20075;-74
2021/08/13 02:25:08;;;;;;;18.90;9.88;;;;;;;15.83;82.56;99415.16;5114148;28;20050;-72
2021/08/13 02:27:37;;;;;;;18.83;9.55;;;;;;;15.93;82.42;99419.56;5114195;28;20048;-70
2021/08/13 02:30:07;;;;;;;20.85;9.13;;;;;;;15.97;81.99;99427.06;5114458;28;20043;-74
2021/08/13 02:32:34;;;;;;;19.50;9.02;;;;;;;16.01;81.45;99432.91;5114347;28;20052;-74
2021/08/13 02:35:02;;;;;;;;;;;;;;;15.96;81.11;99446.75;5114740;28;20489;-70
2021/08/13 02:37:39;;;;;;;18.90;9.13;;;;;;;15.97;81.14;99442.25;5097329;28;19922;-75
2021/08/13 02:40:08;;;;;;;16.95;8.80;;;;;;;15.94;80.82;99447.91;5113897;28;20097;-71
2021/08/13 02:42:40;;;;;;;21.08;8.98;;;;;;;15.93;81.03;99444.41;5114190;28;20072;-71
2021/08/13 02:45:07;;;;;;;19.67;9.02;;;;;;;15.92;80.88;99441.91;5115322;28;20058;-75
2021/08/13 02:47:36;;;;;;;17.10;9.30;;;;;;;15.95;80.77;99447.75;5097240;28;20059;-73
2021/08/13 02:50:06;;;;;;;16.17;9.25;;;;;;;15.94;80.66;99453.25;5114145;28;20074;-69
2021/08/13 02:52:44;;;;;;;23.48;9.20;;;;;;;15.98;80.46;99455.41;5116570;27;20046;-72
2021/08/13 02:55:15;;;;;;;22.85;8.77;;;;;;;15.95;80.22;99453.09;5134217;27;20134;-71
2021/08/13 02:57:44;;;;;;;25.70;9.30;;;;;;;15.96;80.30;99462.75;5134422;27;20047;-75
2021/08/13 03:00:11;;;;;;;17.35;8.40;;;;;;;16.00;79.97;99460.63;5117550;27;20073;-71
2021/08/13 03:02:41;;;;;;;15.60;8.57;;;;;;;16.01;79.65;99465.78;5118031;27;20050;-71
2021/08/13 03:05:08;;;;;;;29.55;8.93;;;;;;;15.92;79.35;99461.38;5117470;27;20123;-72
2021/08/13 03:07:34;;;;;;;18.00;8.93;;;;;;;15.99;80.01;99466.94;5134190;27;20046;-74
2021/08/13 03:10:03;;;;;;;19.58;8.00;;;;;;;16.08;79.21;99460.63;5134411;27;20039;-72
2021/08/13 03:12:30;;;;;;;18.55;7.85;;;;;;;16.01;79.12;99460.44;5117144;27;20047;-71
2021/08/13 03:14:58;;;;;;;19.52;8.55;;;;;;;15.94;79.07;99466.59;5117178;27;20130;-74
2021/08/13 03:17:26;;;;;;;15.75;8.30;;;;;;;15.91;78.98;99472.22;5117135;27;20054;-74
2021/08/13 03:19:53;;;;;;;17.83;8.45;;;;;;;15.88;78.88;99475.22;5135906;27;20050;-71
2021/08/13 03:22:20;;;;;;;17.60;8.60;;;;;;;15.87;78.81;99486.88;5135302;27;20039;-70
2021/08/13 03:24:47;;;;;;;16.90;8.40;;;;;;;15.83;79.01;99475.69;5133109;27;20039;-71
2021/08/13 03:27:13;;;;;;;14.38;7.68;;;;;;;15.93;78.49;99476.41;5116583;27;20103;-73
2021/08/13 03:29:39;;;;;;;15.20;7.60;;;;;;;15.93;77.94;99475.56;5134871;27;20042;-72
2021/08/13 03:32:05;;;;;;;16.23;8.50;;;;;;;15.95;77.73;99479.75;5133597;27;20514;-70
2021/08/13 03:34:31;;;;;;;19.17;9.43;;;;;;;16.06;77.46;99488.47;5133002;27;20046;-71
2021/08/13 03:36:58;;;;;;;16.45;7.22;;;;;;;16.11;76.55;99486.16;5133647;27;20047;-72
2021/08/13 03:39:24;;;;;;;16.55;6.93;;;;;;;16.12;76.03;99495.84;5116289;27;20043;-70
2021/08/13 03:41:50;;;;;;;15.40;5.82;;;;;;;16.13;75.62;99494.84;5133782;27;20117;-71
2021/08/13 03:44:17;;;;;;;;;;;;;;;16.19;74.79;99496.88;5133896;27;20047;-72
2021/08/13 03:46:45;;;;;;;12.05;5.97;;;;;;;16.11;74.32;99502.16;5133233;27;20427;-71
2021/08/13 03:49:14;;;;;;;;;;;;;;;16.05;74.23;99505.47;5134106;27;20047;-71
2021/08/13 03:51:40;;;;;;;12.60;5.78;;;;;;;15.96;74.15;99509.91;5133023;27;19981;-70
2021/08/13 03:54:06;;;;;;;10.55;5.97;;;;;;;15.94;74.38;99514.59;5134199;27;20475;-71
2021/08/13 03:56:32;;;;;;;12.38;5.72;;;;;;;15.93;74.84;99510.25;5132959;27;20071;-70
2021/08/13 03:58:59;;;;;;;13.43;6.05;;;;;;;15.91;74.66;99512.22;5134274;27;20093;-70
2021/08/13 04:01:26;;;;;;;12.07;6.07;;;;;;;15.87;74.64;99506.38;5132517;27;20453;-71
2021/08/13 04:03:52;;;;;;;16.30;6.05;;;;;;;15.93;74.79;99511.06;5132249;27;20104;-71
2021/08/13 04:06:18;;;;;;;20.67;7.18;;;;;;;16.00;74.67;99511.31;5133616;27;20050;-71
2021/08/13 04:08:43;;;;;;;11.27;5.40;;;;;;;16.08;74.31;99513.19;5134251;27;20050;-71
2021/08/13 04:11:10;;;;;;;10.00;5.38;;;;;;;16.11;74.13;99507.50;5132803;27;20043;-70
2021/08/13 04:13:43;;;;;;;16.15;10.05;;;;;;;16.24;74.02;99507.91;5132803;27;20039;-71
2021/08/13 04:16:09;;;;;;;11.70;5.25;;;;;;;16.41;73.52;99503.50;5132901;27;20035;-73
2021/08/13 04:18:35;;;;;;;11.82;4.75;;;;;;;16.63;72.37;99504.72;5132827;27;20070;-71
2021/08/13 04:21:02;;;;;;;;;;;;;;;17.33;71.55;99508.06;5133103;27;20054;-73
2021/08/13 04:23:30;;;;;;;12.65;5.50;;;;;;;18.53;66.35;99496.66;5132330;27;19915;-72
2021/08/13 04:25:56;;;;;;;15.23;6.23;;;;;;;18.59;65.52;99498.63;5132533;27;20075;-70
2021/08/13 04:28:23;;;;;;;10.82;4.75;;;;;;;18.04;67.17;99500.31;5132099;27;20070;-71
2021/08/13 04:30:49;;;;;;;11.63;5.28;;;;;;;18.00;67.51;99503.53;5132370;27;20042;-76
2021/08/13 04:33:15;;;;;;;15.35;5.15;;;;;;;17.63;67.81;99495.03;5132450;27;20418;-70
2021/08/13 04:35:53;;;;;;;7.30;4.65;;;;;;;17.55;68.07;99505.75;5132642;27;20039;-72
2021/08/13 04:38:21;;;;;;;24.45;5.65;;;;;;;17.45;68.14;99505.91;5132295;27;20525;-74
2021/08/13 04:40:47;;;;;;;7.40;4.57;;;;;;;17.42;68.16;99498.22;5133545;27;20377;-73
2021/08/13 04:43:13;;;;;;;9.50;4.53;;;;;;;17.47;67.71;99498.56;5132280;27;20046;-72
2021/08/13 04:45:40;;;;;;;11.03;4.57;;;;;;;17.42;67.19;99506.22;5132126;27;20038;-73
2021/08/13 04:48:06;;;;;;;11.32;4.90;;;;;;;17.38;67.52;99504.91;5150484;27;20288;-73
2021/08/13 04:50:32;;;;;;;9.95;5.93;;;;;;;17.38;67.70;99502.22;5135461;27;20035;-73
2021/08/13 04:53:04;;;;;;;9.73;4.95;;;;;;;17.41;67.75;99510.75;5135055;27;20042;-73
2021/08/13 04:55:29;;;;;;;8.25;4.78;;;;;;;17.58;67.84;99500.91;5153960;27;20050;-73
2021/08/13 04:57:57;;;;;;;13.40;5.00;;;;;;;17.63;66.82;99501.22;5135825;27;20083;-74
2021/08/13 05:00:23;;;;;;;13.23;5.60;;;;;;;17.82;66.22;99509.91;5135077;27;20038;-74
2021/08/13 05:02:50;;;;;;;8.27;4.90;;;;;;;17.70;65.08;99508.56;5135335;27;20039;-74
2021/08/13 05:05:16;;;;;;;9.43;4.70;;;;;;;17.63;65.71;99514.59;5135233;27;20054;-74
2021/08/13 05:07:42;;;;;;;9.93;4.70;;;;;;;17.52;65.71;99514.94;5117981;27;20034;-74
2021/08/13 05:10:10;;;;;;;12.07;4.78;;;;;;;17.44;66.05;99518.44;5153657;27;20065;-72
2021/08/13 05:12:37;;;;;;;21.35;5.63;;;;;;;17.48;66.11;99516.25;5135283;27;20163;-77
2021/08/13 05:15:05;;;;;;;9.90;6.05;;;;;;;17.57;66.14;99523.28;5135419;27;20050;-73
2021/08/13 05:17:32;;;;;;;12.45;5.15;;;;;;;17.47;65.81;99519.97;5135118;27;20038;-75
2021/08/13 05:19:58;;;;;;;14.73;6.10;;;;;;;17.46;65.67;99516.44;5135168;27;20360;-73
2021/08/13 05:22:24;;;;;;;12.10;5.43;;;;;;;17.57;65.13;99512.59;5135140;27;20148;-75
2021/08/13 05:24:50;;;;;;;11.88;5.68;;;;;;;18.58;63.45;99517.56;5135135;27;20046;-72
2021/08/13 05:27:17;;;;;;;7.33;4.80;;;;;;;20.90;56.71;99517.19;5135251;27;20043;-73
2021/08/13 05:29:43;;;;;;;14.52;5.80;;;;;;;22.05;54.29;99514.50;5134797;27;20046;-75
2021/08/13 05:32:08;;;;;;;13.98;4.70;;;;;;;22.82;51.50;99513.63;5135184;27;20042;-74
2021/08/13 05:34:34;;;;;;;9.07;4.93;;;;;;;22.37;50.97;99516.72;5153530;27;20043;-74
2021/08/13 05:37:00;;;;;;;13.18;5.78;;;;;;;22.18;51.97;99519.16;5134587;27;20384;-71
2021/08/13 05:39:27;;;;;;;11.10;5.43;;;;;;;21.85;52.51;99518.94;5134510;27;20170;-72
2021/08/13 05:41:54;;;;;;;18.35;7.13;;;;;;;22.04;52.02;99520.91;5135102;27;20045;-76
2021/08/13 05:44:20;;;;;;;11.02;4.75;;;;;;;21.69;52.94;99531.63;5134391;27;20043;-73
2021/08/13 05:46:46;;;;;;;12.05;5.80;;;;;;;21.34;53.65;99528.81;5134517;27;20061;-71
2021/08/13 05:49:11;;;;;;;8.48;5.25;;;;;;;21.34;53.87;99528.81;5135231;27;20046;-73
2021/08/13 05:51:37;;;;;;;9.68;6.18;;;;;;;21.42;53.50;99536.75;5134485;27;20371;-73
2021/08/13 05:54:03;;;;;;;6.25;4.47;;;;;;;21.19;53.41;99542.31;5134410;27;20050;-71
2021/08/13 05:56:29;;;;;;;8.10;4.88;;;;;;;20.36;55.11;99553.25;5134612;27;20046;-72
2021/08/13 05:59:00;;;;;;;12.63;4.60;;;;;;;20.10;56.42;99549.19;5134635;27;20407;-72
2021/08/13 06:01:27;;;;;;;10.52;4.72;;;;;;;20.00;57.44;99548.59;5134367;27;20046;-75
2021/08/13 06:03:53;;;;;;;16.02;4.55;;;;;;;19.83;57.75;99556.00;5134360;27;20219;-73
2021/08/13 06:06:19;;;;;;;12.48;4.10;;;;;;;19.58;58.81;99561.53;5134176;27;20035;-75
2021/08/13 06:08:47;;;;;;;;;;;;;;;19.11;60.02;99560.69;5134730;27;20042;-76
2021/08/13 06:11:13;;;;;;;14.85;4.70;;;;;;;19.11;60.55;99563.38;5153378;27;19918;-75
2021/08/13 06:13:39;;;;;;;75.68;31.80;;;;;;;18.94;60.86;99575.19;5134434;27;20031;-77
2021/08/13 06:16:05;;;;;;;8.48;5.00;;;;;;;18.74;61.67;99565.72;5153283;27;20038;-72
2021/08/13 06:18:32;;;;;;;9.23;4.07;;;;;;;18.65;62.21;99571.28;5134743;27;20051;-71
2021/08/13 06:20:59;;;;;;;7.40;4.18;;;;;;;18.55;62.32;99576.84;5134463;27;20043;-74
2021/08/13 06:23:27;;;;;;;9.27;5.57;;;;;;;18.47;62.64;99574.16;5134203;27;20038;-73
2021/08/13 06:25:53;;;;;;;8.63;4.20;;;;;;;18.48;62.70;99583.88;5134703;27;20046;-77
2021/08/13 06:28:20;;;;;;;8.30;3.85;;;;;;;18.50;63.44;99590.72;5138049;27;20038;-73
2021/08/13 06:30:47;;;;;;;9.90;4.80;;;;;;;18.75;62.52;99587.97;5138363;27;20533;-73
2021/08/13 06:33:14;;;;;;;10.90;3.97;;;;;;;18.75;62.45;99579.94;5156914;27;20035;-76
2021/08/13 06:35:40;;;;;;;7.45;4.28;;;;;;;19.29;61.48;99581.88;5137862;27;20042;-75
2021/08/13 06:38:07;;;;;;;15.35;4.93;;;;;;;20.31;58.86;99587.91;5156706;27;20360;-72
2021/08/13 06:40:33;;;;;;;;;;;;;;;21.47;55.01;99598.91;5138859;27;20058;-75
2021/08/13 06:42:59;;;;;;;11.95;4.78;;;;;;;23.00;51.80;99583.22;5138128;27;20328;-72
2021/08/13 06:45:28;;;;;;;12.65;4.70;;;;;;;23.23;50.88;99585.59;5138062;27;20078;-75
2021/08/13 06:47:56;;;;;;;8.18;3.60;;;;;;;22.36;51.42;99598.63;5138168;27;20055;-74
2021/08/13 06:50:22;;;;;;;8.97;4.40;;;;;;;21.66;53.34;99596.63;5138228;27;20479;-74
2021/08/13 06:52:51;;;;;;;9.10;3.92;;;;;;;21.08;54.42;99599.28;5138076;27;20058;-77
2021/08/13 06:55:17;;;;;;;14.25;3.95;;;;;;;21.15;55.05;99606.41;5156682;27;20035;-76
2021/08/13 06:57:43;;;;;;;10.93;4.47;;;;;;;21.06;55.06;99610.25;5137739;27;20045;-74
2021/08/13 07:00:11;;;;;;;8.10;4.60;;;;;;;21.28;53.84;99607.59;5156569;27;20065;-74
2021/08/13 07:02:39;;;;;;;10.60;4.13;;;;;;;21.71;53.36;99610.34;5137534;27;20039;-73
2021/08/13 07:05:08;;;;;;;8.80;4.50;;;;;;;22.17;52.70;99602.84;5137964;27;20091;-74
2021/08/13 07:07:34;;;;;;;10.50;4.13;;;;;;;22.34;51.69;99606.06;5137856;27;20393;-76
2021/08/13 07:10:04;;;;;;;8.88;3.80;;;;;;;22.85;50.29;99610.31;5137791;27;20038;-75
2021/08/13 07:12:30;;;;;;;11.13;4.82;;;;;;;23.48;49.06;99598.50;5137625;27;20450;-74
2021/08/13 07:14:57;;;;;;;7.13;3.45;;;;;;;23.33;49.02;99606.78;5137816;27;20134;-76
2021/08/13 07:17:24;;;;;;;6.35;3.47;;;;;;;23.03;49.43;99616.00;5137392;27;20038;-74
2021/08/13 07:19:50;;;;;;;7.13;4.20;;;;;;;23.41;48.98;99599.34;5155731;27;20050;-75
2021/08/13 07:22:15;;;;;;;9.73;3.97;;;;;;;24.83;45.70;99597.41;5137570;27;20495;-77
2021/08/13 07:24:41;;;;;;;5.25;3.47;;;;;;;24.76;45.30;99610.13;5137456;27;20399;-75
2021/08/13 07:27:07;;;;;;;8.88;4.72;;;;;;;24.33;46.04;99606.88;5137348;27;20122;-74
2021/08/13 07:29:33;;;;;;;7.60;4.18;;;;;;;23.93;46.95;99617.72;5155794;27;20050;-76
2021/08/13 07:31:59;;;;;;;8.30;4.00;;;;;;;22.94;48.76;99614.50;5137348;27;20049;-75
2021/08/13 07:34:24;;;;;;;12.10;5.25;;;;;;;22.27;51.20;99619.50;5137637;27;20099;-80
2021/08/13 07:36:52;;;;;;;11.93;3.70;;;;;;;22.12;51.48;99620.44;5137134;27;20047;-72
2021/08/13 07:39:19;;;;;;;7.82;4.10;;;;;;;21.95;51.88;99621.75;5135685;27;20042;-76
2021/08/13 07:41:45;;;;;;;18.02;6.50;;;;;;;21.41;53.49;99629.28;5136892;27;20122;-76
2021/08/13 07:44:11;;;;;;;13.98;5.82;;;;;;;21.38;53.99;99637.69;5137020;27;20138;-75
2021/08/13 07:46:37;;;;;;;9.32;4.35;;;;;;;20.81;54.81;99634.75;5136302;27;20042;-75
2021/08/13 07:49:03;;;;;;;6.78;3.80;;;;;;;20.63;55.13;99624.34;5137237;27;20043;-73
2021/08/13 07:51:29;;;;;;;8.32;4.47;;;;;;;20.29;55.78;99641.81;5136990;27;20431;-72
2021/08/13 07:53:56;;;;;;;16.52;7.50;;;;;;;20.10;56.83;99632.44;5137002;27;20046;-75
2021/08/13 07:56:22;;;;;;;16.10;6.78;;;;;;;20.08;57.43;99642.50;5155629;27;20046;-78
2021/08/13 07:58:48;;;;;;;13.75;6.07;;;;;;;20.60;56.47;99650.75;5136629;27;20174;-79
2021/08/13 08:01:14;;;;;;;19.10;8.20;;;;;;;21.24;55.20;99641.28;5136569;27;20051;-75
2021/08/13 08:03:40;;;;;;;14.85;5.95;;;;;;;21.87;53.33;99640.72;5154879;27;20035;-75
2021/08/13 08:06:06;;;;;;;15.43;6.68;;;;;;;22.39;52.42;99647.63;5155150;27;20042;-76
2021/08/13 08:08:32;;;;;;;9.20;4.10;;;;;;;22.47;50.99;99657.41;5154875;27;20038;-75
2021/08/13 08:10:58;;;;;;;13.02;6.03;;;;;;;22.64;50.77;99652.53;5155293;27;20122;-76
2021/08/13 08:13:24;;;;;;;39.55;15.95;;;;;;;22.18;51.29;99658.38;5154738;27;20400;-74
2021/08/13 08:15:50;;;;;;;62.45;22.55;;;;;;;22.18;51.66;99664.63;5154590;27;20051;-76
2021/08/13 08:18:19;;;;;;;23.65;9.55;;;;;;;22.59;50.89;99671.16;5155198;27;20051;-77
2021/08/13 08:20:46;;;;;;;13.52;6.47;;;;;;;22.70;50.63;99659.00;5154793;27;20043;-74
2021/08/13 08:23:12;;;;;;;16.15;6.90;;;;;;;22.85;50.23;99669.66;5154803;27;20470;-75
2021/08/13 08:25:38;;;;;;;13.88;6.35;;;;;;;22.46;51.11;99664.63;5136091;27;20050;-76
2021/08/13 08:28:04;;;;;;;16.83;7.57;;;;;;;22.65;50.60;99673.06;5136505;27;20038;-76
2021/08/13 08:30:30;;;;;;;19.73;8.25;;;;;;;22.34;51.32;99674.25;5154964;27;20046;-80
2021/08/13 08:32:56;;;;;;;27.70;12.68;;;;;;;21.71;52.97;99679.50;5154664;27;20061;-74
2021/08/13 08:35:22;;;;;;;15.30;7.00;;;;;;;21.34;53.66;99684.84;5154498;27;20049;-78
2021/08/13 08:38:00;;;;;;;13.02;7.00;;;;;;;21.05;54.71;99681.19;5154453;27;20038;-76
2021/08/13 08:40:31;;;;;;;18.45;7.30;;;;;;;21.04;55.24;99684.91;5154397;27;20585;-77
2021/08/13 08:43:00;;;;;;;14.63;6.60;;;;;;;21.62;54.37;99676.09;5154701;27;20125;-76
2021/08/13 08:45:27;;;;;;;12.48;6.78;;;;;;;23.07;51.53;99673.91;5154302;27;20042;-77
2021/08/13 08:47:55;;;;;;;14.18;7.18;;;;;;;24.36;48.05;99660.53;5154244;27;20134;-73
2021/08/13 08:50:22;;;;;;;16.52;8.13;;;;;;;24.35;47.32;99677.78;5135448;27;20041;-73
2021/08/13 08:52:49;;;;;;;17.93;8.23;;;;;;;24.10;48.31;99677.59;5153868;27;20038;-79
2021/08/13 08:55:15;;;;;;;17.67;7.40;;;;;;;24.03;47.84;99677.56;5135054;27;20042;-72
2021/08/13 08:57:42;;;;;;;13.93;6.93;;;;;;;25.29;45.84;99674.88;5135567;27;20042;-75
2021/08/13 09:00:08;;;;;;;16.02;4.82;;;;;;;26.46;42.35;99676.41;5136048;27;20045;-76
2021/08/13 09:02:34;;;;;;;15.43;8.93;;;;;;;27.04;40.88;99673.56;5154407;27;20045;-76
2021/08/13 09:05:00;;;;;;;13.02;5.90;;;;;;;27.81;39.75;99669.44;5154438;27;20047;-75
2021/08/13 09:07:29;;;;;;;8.75;5.10;;;;;;;27.33;40.01;99679.25;5153982;27;20042;-79
2021/08/13 09:09:54;;;;;;;13.85;6.65;;;;;;;25.91;41.25;99693.31;5153814;27;20518;-76
2021/08/13 09:12:21;;;;;;;11.35;4.50;;;;;;;27.63;38.52;99681.19;5154223;27;20043;-72
2021/08/13 09:14:47;;;;;;;8.30;4.67;;;;;;;27.67;38.34;99688.66;5135565;27;20089;-77
2021/08/13 09:17:13;;;;;;;9.52;4.30;;;;;;;27.01;39.41;99690.31;5154128;27;20054;-73
2021/08/13 09:19:47;;;;;;;10.40;3.97;;;;;;;26.03;40.65;99701.56;5153772;27;20414;-78
2021/08/13 09:22:18;;;;;;;12.20;4.50;;;;;;;24.77;43.31;99710.00;5153575;27;20487;-77
2021/08/13 09:24:48;;;;;;;11.20;4.40;;;;;;;24.49;43.66;99704.81;5153812;27;20038;-75
2021/08/13 09:27:22;;;;;;;9.32;4.65;;;;;;;23.83;44.91;99692.91;5154194;27;20129;-76
2021/08/13 09:30:08;;;;;;;13.20;5.43;;;;;;;24.25;44.88;99714.38;5135489;27;20066;-73
2021/08/13 09:32:41;;;;;;;10.65;6.05;;;;;;;27.05;41.07;99700.47;5135847;27;20039;-77
2021/08/13 09:35:07;;;;;;;10.90;5.25;;;;;;;28.36;36.84;99707.28;5154149;27;20031;-78
2021/08/13 09:37:35;;;;;;;11.85;4.60;;;;;;;29.63;34.81;99708.69;5153808;27;20050;-77
2021/08/13 09:40:00;;;;;;;9.13;4.28;;;;;;;31.29;32.10;99702.00;5135230;27;20042;-80
2021/08/13 09:42:36;;;;;;;11.02;4.38;;;;;;;31.90;30.89;99709.25;5153461;27;20050;-76
2021/08/13 09:45:08;;;;;;;6.72;4.10;;;;;;;31.08;31.80;99709.97;5153632;27;20050;-76
2021/08/13 09:47:52;;;;;;;9.02;4.10;;;;;;;31.55;31.08;99707.78;5131448;28;20569;-75
2021/08/13 09:50:21;;;;;;;12.70;6.82;;;;;;;30.30;32.59;99723.50;5133093;28;20070;-75
2021/08/13 09:53:08;;;;;;;9.02;5.03;;;;;;;31.17;30.87;99714.97;5131508;28;20118;-78
2021/08/13 09:55:38;;;;;;;10.15;4.22;;;;;;;32.34;30.25;99720.06;5131752;28;20047;-77
2021/08/13 09:58:05;;;;;;;7.00;4.30;;;;;;;32.33;29.50;99720.31;5133227;27;20043;-80
2021/08/13 10:00:31;;;;;;;;;;;;;;;31.98;31.05;99714.25;5132392;28;20051;-79
2021/08/13 10:03:07;;;;;;;12.43;4.47;;;;;;;30.44;31.84;99727.53;5115032;27;19926;-77
2021/08/13 10:05:33;;;;;;;6.38;4.25;;;;;;;29.35;33.16;99719.31;5136893;27;20058;-75
2021/08/13 10:08:01;;;;;;;10.53;4.50;;;;;;;28.40;34.98;99730.25;5136192;27;20039;-76
2021/08/13 10:10:41;;;;;;;12.57;5.18;;;;;;;27.86;36.42;99732.09;5136817;27;20046;-76
2021/08/13 10:13:11;;;;;;;9.25;4.40;;;;;;;27.83;36.66;99735.28;5135852;27;20077;-74
2021/08/13 10:15:55;;;;;;;10.73;4.60;;;;;;;27.13;37.50;99732.75;5135359;27;20452;-78
2021/08/13 10:18:24;;;;;;;68.88;32.72;;;;;;;26.63;38.84;99744.50;5135311;27;20043;-77
2021/08/13 10:20:55;;;;;;;9.55;4.70;;;;;;;26.91;38.50;99731.56;5118714;27;20107;-74
2021/08/13 10:23:23;;;;;;;16.65;4.90;;;;;;;27.18;37.67;99740.25;5119128;27;20411;-76
2021/08/13 10:25:52;;;;;;;8.90;4.63;;;;;;;27.04;37.78;99731.41;5101474;27;20138;-77
2021/08/13 10:28:26;;;;;;;11.43;4.75;;;;;;;26.10;38.79;99739.50;5119606;27;20050;-76
2021/08/13 10:30:58;;;;;;;9.55;5.15;;;;;;;25.64;40.93;99746.81;5134940;27;20042;-79
2021/08/13 10:33:24;;;;;;;12.70;5.60;;;;;;;25.10;41.86;99746.19;5135180;27;20403;-77
2021/08/13 10:35:55;;;;;;;23.85;6.22;;;;;;;24.79;43.72;99766.63;5134904;27;20380;-79
2021/08/13 10:38:25;;;;;;;12.95;5.38;;;;;;;24.60;44.85;99760.97;5117631;27;20047;-79
2021/08/13 10:40:52;;;;;;;9.90;5.00;;;;;;;26.02;42.64;99764.97;5134279;27;20039;-75
2021/08/13 10:43:26;;;;;;;;;;;;;;;27.27;39.64;99759.78;5118320;27;20108;-79
2021/08/13 10:45:53;;;;;;;11.05;5.32;;;;;;;27.65;37.88;99766.84;5117913;27;19915;-77
2021/08/13 10:48:24;;;;;;;10.55;5.13;;;;;;;27.74;37.40;99761.97;5117358;27;20050;-77
2021/08/13 10:50:58;;;;;;;12.85;4.50;;;;;;;27.83;37.50;99757.84;5100753;27;20429;-78
2021/08/13 10:53:28;;;;;;;16.60;5.40;;;;;;;27.67;37.39;99761.22;5134723;27;20112;-75
2021/08/13 10:55:57;;;;;;;10.07;4.88;;;;;;;26.87;38.91;99760.22;5134639;27;20043;-77
2021/08/13 10:58:41;;;;;;;12.10;5.03;;;;;;;27.03;39.04;99767.75;5134508;27;20162;-77
2021/08/13 11:01:24;;;;;;;12.32;5.68;;;;;;;26.53;40.20;99776.75;5134577;27;20046;-77
2021/08/13 11:04:01;;;;;;;;;;;;;;;26.69;39.17;99778.06;5117472;27;20100;-77
2021/08/13 11:06:37;;;;;;;9.82;5.10;;;;;;;26.46;38.95;99778.69;5134206;27;19915;-73
2021/08/13 11:09:28;;;;;;;9.57;5.43;;;;;;;25.95;39.26;99772.31;5117829;27;20051;-76
2021/08/13 11:11:55;;;;;;;18.45;8.43;;;;;;;25.59;40.20;99776.44;5118642;27;20492;-77
2021/08/13 11:14:34;;;;;;;14.13;6.10;;;;;;;26.10;40.27;99777.47;5134204;27;20051;-80
2021/08/13 11:17:02;;;;;;;14.68;7.45;;;;;;;26.56;40.00;99770.88;5135235;27;20043;-75
2021/08/13 11:19:28;;;;;;;;;;;;;;;27.18;38.76;99770.13;5136634;27;20384;-75
2021/08/13 11:22:02;;;;;;;16.15;6.78;;;;;;;27.50;38.23;99780.00;5133959;27;19919;-77
2021/08/13 11:24:50;;;;;;;13.25;6.85;;;;;;;27.60;38.27;99778.44;5133900;27;20092;-79
2021/08/13 11:27:19;;;;;;;13.23;6.13;;;;;;;27.34;38.18;99789.56;5117897;27;20043;-78
2021/08/13 11:29:46;;;;;;;11.70;5.90;;;;;;;26.95;38.98;99795.19;5133754;27;20071;-77
2021/08/13 11:32:19;;;;;;;15.80;5.65;;;;;;;26.79;38.61;99788.44;5134206;27;20051;-76